Time;durP1;ratioP1;P1;durP2;ratioP2;P2;SDS_P1;SDS_P2;PMS_P1;PMS_P2;Temp;Humidity;BMP_temperature;BMP_pressure;BME280_temperature;BME280_humidity;BME280_pressure;Samples;Min_cycle;Max_cycle;Signal;HPM_P1;HPM_P2
2021/01/14 00:03:35;;;;;;;11.13;5.43;;;;;3.80;101294.00;;;;10399823;28;20605;-77
2021/01/14 00:08:45;;;;;;;13.07;6.07;;;;;3.80;101279.00;;;;10439670;28;20183;-77
2021/01/14 00:13:46;;;;;;;13.23;5.43;;;;;3.80;101283.00;;;;10403426;28;20948;-77
2021/01/14 00:18:48;;;;;;;12.40;6.27;;;;;3.80;101277.00;;;;10443349;28;20194;-77
2021/01/14 00:23:49;;;;;;;18.57;6.57;;;;;3.80;101286.00;;;;10409339;28;20205;-77
2021/01/14 00:28:50;;;;;;;10.50;6.53;;;;;3.80;101276.00;;;;10398085;28;20657;-77
2021/01/14 00:33:52;;;;;;;16.67;7.30;;;;;3.90;101259.00;;;;10459508;28;20200;-77
2021/01/14 00:38:53;;;;;;;12.40;8.00;;;;;3.90;101251.00;;;;10456220;28;20243;-77
2021/01/14 00:43:54;;;;;;;15.23;7.87;;;;;3.90;101248.00;;;;10414616;28;20227;-77
2021/01/14 00:48:56;;;;;;;14.53;8.67;;;;;3.90;101258.00;;;;10401098;28;20219;-77
2021/01/14 00:53:57;;;;;;;16.30;7.97;;;;;3.80;101260.00;;;;10435286;28;20186;-77
2021/01/14 00:58:58;;;;;;;18.87;8.00;;;;;3.80;101258.00;;;;10360025;28;20194;-77
2021/01/14 01:04:02;;;;;;;16.70;7.67;;;;;3.80;101259.00;;;;10442862;28;20551;-77
2021/01/14 01:09:08;;;;;;;18.27;8.70;;;;;3.80;101261.00;;;;10421579;28;20202;-77
2021/01/14 01:14:10;;;;;;;13.97;8.27;;;;;3.80;101258.00;;;;10395446;28;20198;-77
2021/01/14 01:19:11;;;;;;;15.30;8.63;;;;;3.80;101259.00;;;;10418877;28;20658;-77
2021/01/14 01:24:13;;;;;;;17.77;9.00;;;;;3.80;101251.00;;;;10390479;28;20191;-78
2021/01/14 01:29:14;;;;;;;23.67;9.07;;;;;3.70;101248.00;;;;10428408;28;20271;-78
2021/01/14 01:34:16;;;;;;;19.77;8.60;;;;;3.70;101262.00;;;;10418454;28;20195;-78
2021/01/14 01:39:17;;;;;;;13.97;9.20;;;;;3.70;101264.00;;;;10430199;28;20190;-78
2021/01/14 01:44:19;;;;;;;17.63;9.40;;;;;3.70;101281.00;;;;10415082;28;20559;-78
2021/01/14 01:49:20;;;;;;;15.53;8.67;;;;;3.60;101280.00;;;;10414832;28;20214;-78
2021/01/14 01:54:22;;;;;;;18.43;10.57;;;;;3.60;101284.00;;;;10417882;28;20639;-77
2021/01/14 01:59:25;;;;;;;20.03;10.20;;;;;3.60;101287.00;;;;10410724;28;20195;-78
2021/01/14 02:04:26;;;;;;;17.30;10.53;;;;;3.60;101285.00;;;;10445137;28;20627;-78
2021/01/14 02:09:28;;;;;;;17.57;10.90;;;;;3.60;101293.00;;;;10454320;28;20229;-78
2021/01/14 02:14:30;;;;;;;18.60;11.33;;;;;3.60;101289.00;;;;10414154;28;20199;-77
2021/01/14 02:19:44;;;;;;;18.97;10.70;;;;;3.60;101276.00;;;;10414023;28;20604;-78
2021/01/14 02:24:55;;;;;;;20.97;11.43;;;;;3.60;101277.00;;;;10410480;28;20249;-78
2021/01/14 02:29:57;;;;;;;18.50;12.13;;;;;3.60;101283.00;;;;10423199;28;20207;-78
2021/01/14 02:34:59;;;;;;;20.17;11.57;;;;;3.60;101272.00;;;;10428911;28;20193;-78
2021/01/14 02:40:03;;;;;;;21.87;12.03;;;;;3.60;101274.00;;;;10430450;28;20649;-78
2021/01/14 02:45:05;;;;;;;19.53;12.33;;;;;3.60;101273.00;;;;10392174;28;20215;-78
2021/01/14 02:50:09;;;;;;;18.90;12.10;;;;;3.60;101281.00;;;;10412544;28;21052;-77
2021/01/14 02:55:13;;;;;;;21.80;13.23;;;;;3.60;101279.00;;;;10424217;28;20191;-77
2021/01/14 03:00:15;;;;;;;19.93;12.53;;;;;3.60;101284.00;;;;10393171;28;20210;-80
2021/01/14 03:05:16;;;;;;;25.30;14.60;;;;;3.60;101286.00;;;;10429872;28;20195;-77
2021/01/14 03:10:18;;;;;;;30.40;18.40;;;;;3.60;101289.00;;;;10440833;28;20593;-78
2021/01/14 03:15:19;;;;;;;24.93;16.80;;;;;3.60;101297.00;;;;10428806;28;20610;-80
2021/01/14 03:20:20;;;;;;;28.97;18.07;;;;;3.60;101298.00;;;;10399437;28;20669;-78
2021/01/14 03:25:22;;;;;;;29.47;19.33;;;;;3.60;101305.00;;;;10419297;28;20197;-78
2021/01/14 03:30:23;;;;;;;26.63;18.70;;;;;3.60;101312.00;;;;10425443;28;20254;-78
2021/01/14 03:35:24;;;;;;;27.90;20.30;;;;;3.60;101326.00;;;;10417142;28;20249;-78
2021/01/14 03:40:26;;;;;;;29.87;20.73;;;;;3.60;101326.00;;;;10415281;28;20305;-78
2021/01/14 03:45:27;;;;;;;29.90;21.27;;;;;3.60;101322.00;;;;10427755;28;20218;-78
2021/01/14 03:50:29;;;;;;;29.37;21.70;;;;;3.60;101317.00;;;;10443258;28;20216;-77
2021/01/14 03:55:30;;;;;;;34.93;23.03;;;;;3.60;101324.00;;;;10433574;28;20202;-77
2021/01/14 04:00:31;;;;;;;36.17;23.67;;;;;3.60;101328.00;;;;10425308;28;20206;-78
2021/01/14 04:05:33;;;;;;;33.20;24.20;;;;;3.60;101327.00;;;;10410579;28;20201;-78
2021/01/14 04:10:34;;;;;;;35.20;22.13;;;;;3.60;101327.00;;;;10437139;28;20219;-78
2021/01/14 04:15:35;;;;;;;38.27;27.00;;;;;3.60;101321.00;;;;10416579;28;20198;-78
2021/01/14 04:20:38;;;;;;;25.97;18.70;;;;;3.50;101335.00;;;;10433490;28;20191;-78
2021/01/14 04:25:39;;;;;;;17.67;13.37;;;;;3.30;101340.00;;;;10400654;28;20565;-78
2021/01/14 04:30:41;;;;;;;14.00;10.13;;;;;3.10;101348.00;;;;10415690;28;20202;-78
2021/01/14 04:35:53;;;;;;;14.53;7.93;;;;;2.90;101343.00;;;;10412763;28;20203;-78
2021/01/14 04:41:02;;;;;;;9.87;6.37;;;;;2.70;101346.00;;;;10434940;28;20191;-78
2021/01/14 04:46:05;;;;;;;10.33;6.77;;;;;2.60;101347.00;;;;10419531;28;20214;-78
2021/01/14 04:51:12;;;;;;;7.33;5.60;;;;;2.50;101358.00;;;;10450893;28;20218;-78
2021/01/14 04:56:16;;;;;;;9.07;5.80;;;;;2.40;101361.00;;;;10407472;28;20189;-78
2021/01/14 05:01:19;;;;;;;8.13;5.90;;;;;2.20;101370.00;;;;10455485;28;20202;-78
2021/01/14 05:06:25;;;;;;;11.47;7.20;;;;;2.00;101377.00;;;;10443958;28;20262;-77
2021/01/14 05:11:37;;;;;;;10.63;6.07;;;;;1.90;101381.00;;;;10446935;28;20210;-78
2021/01/14 05:16:38;;;;;;;7.40;4.00;;;;;1.70;101378.00;;;;10422483;28;20198;-78
2021/01/14 05:21:41;;;;;;;6.30;4.00;;;;;1.60;101388.00;;;;10395674;28;20270;-78
2021/01/14 05:26:43;;;;;;;10.37;5.30;;;;;1.40;101387.00;;;;10442645;28;20194;-78
2021/01/14 05:31:46;;;;;;;16.00;6.23;;;;;1.40;101398.00;;;;10456558;28;20591;-78
2021/01/14 05:37:05;;;;;;;10.93;5.40;;;;;1.30;101401.00;;;;10426377;28;20217;-78
2021/01/14 05:42:10;;;;;;;9.47;5.87;;;;;1.20;101402.00;;;;10395442;28;20186;-78
2021/01/14 05:47:26;;;;;;;14.33;5.43;;;;;1.10;101398.00;;;;10452339;28;20197;-78
2021/01/14 05:52:29;;;;;;;12.73;5.63;;;;;1.00;101397.00;;;;10445057;28;20297;-78
2021/01/14 05:57:33;;;;;;;11.93;6.43;;;;;1.00;101393.00;;;;10411748;28;20930;-78
2021/01/14 06:02:34;;;;;;;10.63;5.93;;;;;0.90;101382.00;;;;10414195;28;20647;-79
2021/01/14 06:07:40;;;;;;;12.87;7.13;;;;;0.80;101385.00;;;;10408489;28;20218;-78
2021/01/14 06:12:49;;;;;;;13.70;7.60;;;;;0.80;101389.00;;;;10412187;28;20206;-78
2021/01/14 06:17:53;;;;;;;16.83;7.27;;;;;0.80;101392.00;;;;10423531;28;20305;-79
2021/01/14 06:22:58;;;;;;;16.23;6.23;;;;;0.80;101392.00;;;;10405897;28;20194;-78
2021/01/14 06:28:03;;;;;;;14.80;5.90;;;;;0.70;101383.00;;;;10445520;28;20195;-79
2021/01/14 06:33:04;;;;;;;8.37;5.40;;;;;0.70;101396.00;;;;10413875;28;20214;-78
2021/01/14 06:38:13;;;;;;;14.70;5.93;;;;;0.70;101394.00;;;;10428954;28;20198;-79
2021/01/14 06:43:19;;;;;;;9.10;4.43;;;;;0.70;101396.00;;;;10410964;28;20617;-79
2021/01/14 06:48:29;;;;;;;8.70;4.10;;;;;0.70;101393.00;;;;10385305;28;20199;-79
2021/01/14 06:53:34;;;;;;;10.07;3.43;;;;;0.70;101397.00;;;;10375148;28;20211;-79
2021/01/14 06:58:38;;;;;;;6.93;3.13;;;;;0.70;101392.00;;;;10385683;28;20199;-80
2021/01/14 07:03:56;;;;;;;7.47;3.07;;;;;0.70;101392.00;;;;10404410;28;20190;-80
2021/01/14 07:09:20;;;;;;;10.33;3.77;;;;;0.70;101381.00;;;;10377189;28;20194;-80
2021/01/14 07:14:24;;;;;;;7.93;3.50;;;;;0.70;101378.00;;;;10404494;28;20194;-79
2021/01/14 07:19:25;;;;;;;11.40;5.07;;;;;0.70;101382.00;;;;10407248;28;20256;-80
2021/01/14 07:24:29;;;;;;;7.53;3.23;;;;;0.80;101385.00;;;;10416811;28;20224;-79
2021/01/14 07:29:32;;;;;;;7.90;3.23;;;;;0.70;101381.00;;;;10393640;28;20199;-78
2021/01/14 07:34:40;;;;;;;6.23;3.93;;;;;0.80;101371.00;;;;10412315;28;20194;-79
2021/01/14 07:39:58;;;;;;;6.23;4.30;;;;;0.80;101376.00;;;;10429910;28;20190;-78
2021/01/14 07:45:05;;;;;;;7.47;4.00;;;;;0.80;101373.00;;;;10416153;28;20214;-78
2021/01/14 07:50:19;;;;;;;17.97;4.37;;;;;0.80;101378.00;;;;10419791;28;20217;-78
2021/01/14 07:55:24;;;;;;;13.37;4.97;;;;;0.90;101382.00;;;;10383948;28;20195;-78
2021/01/14 08:00:26;;;;;;;13.10;4.40;;;;;0.90;101380.00;;;;10389266;28;20207;-77
2021/01/14 08:05:41;;;;;;;12.37;3.97;;;;;1.00;101383.00;;;;10422890;28;20226;-78
2021/01/14 08:10:42;;;;;;;14.17;4.17;;;;;1.10;101397.00;;;;10409845;28;20202;-77
2021/01/14 08:15:44;;;;;;;7.70;2.57;;;;;1.20;101408.00;;;;10423253;28;20191;-78
2021/01/14 08:21:31;;;;;;;14.90;3.77;;;;;1.30;101409.00;;;;10458964;28;20195;-79
2021/01/14 08:27:04;;;;;;;12.50;3.67;;;;;1.40;101419.00;;;;10410357;28;20225;-78
2021/01/14 08:32:45;;;;;;;11.70;3.00;;;;;1.40;101425.00;;;;10433657;28;20210;-78
2021/01/14 08:38:14;;;;;;;9.37;2.93;;;;;1.40;101428.00;;;;10375784;28;20242;-78
2021/01/14 08:43:18;;;;;;;8.07;3.00;;;;;1.50;101431.00;;;;10398266;28;20214;-79
2021/01/14 08:48:30;;;;;;;9.80;3.77;;;;;1.70;101436.00;;;;10417412;28;20281;-79
2021/01/14 08:53:36;;;;;;;9.67;3.50;;;;;2.00;101433.00;;;;10399575;28;20252;-79
2021/01/14 08:58:43;;;;;;;9.60;3.77;;;;;1.90;101435.00;;;;10419919;28;20201;-78
2021/01/14 09:03:50;;;;;;;6.47;2.90;;;;;2.00;101442.00;;;;10428406;28;20262;-79
2021/01/14 09:08:53;;;;;;;11.10;4.00;;;;;2.10;101438.00;;;;10430855;28;20290;-79
2021/01/14 09:14:09;;;;;;;10.60;3.33;;;;;2.00;101438.00;;;;10431655;28;20199;-78
2021/01/14 09:19:15;;;;;;;9.57;3.63;;;;;1.80;101432.00;;;;10407697;28;20601;-78
2021/01/14 09:24:17;;;;;;;6.57;2.90;;;;;1.80;101433.00;;;;10437559;28;20887;-78
2021/01/14 09:29:21;;;;;;;11.63;3.00;;;;;1.80;101441.00;;;;10431427;28;20202;-77
2021/01/14 09:34:22;;;;;;;10.37;3.03;;;;;1.80;101435.00;;;;10421026;28;20241;-78
2021/01/14 09:39:26;;;;;;;6.10;2.73;;;;;1.90;101433.00;;;;10439406;28;20226;-78
2021/01/14 09:44:30;;;;;;;10.90;3.27;;;;;1.90;101425.00;;;;10420042;28;20218;-78
2021/01/14 09:49:32;;;;;;;8.20;3.03;;;;;2.00;101430.00;;;;10417359;28;20655;-78
2021/01/14 09:54:36;;;;;;;6.40;2.83;;;;;2.10;101421.00;;;;10432820;28;20562;-78
2021/01/14 09:59:43;;;;;;;13.17;4.33;;;;;2.10;101430.00;;;;10408458;28;20202;-78
2021/01/14 10:04:52;;;;;;;10.60;3.87;;;;;2.10;101426.00;;;;10428973;28;20199;-77
2021/01/14 10:09:55;;;;;;;12.20;4.40;;;;;2.30;101425.00;;;;10407446;28;20214;-78
2021/01/14 10:15:07;;;;;;;12.70;4.60;;;;;2.30;101418.00;;;;10412824;28;20198;-78
2021/01/14 10:20:14;;;;;;;8.90;4.20;;;;;2.20;101427.00;;;;10424810;28;20651;-78
2021/01/14 10:25:17;;;;;;;10.63;4.53;;;;;2.20;101415.00;;;;10394153;28;20202;-78
2021/01/14 10:30:23;;;;;;;18.67;7.10;;;;;2.50;101409.00;;;;10423225;28;20218;-78
2021/01/14 10:35:27;;;;;;;16.50;7.43;;;;;2.70;101404.00;;;;10407724;28;20194;-77
2021/01/14 10:40:37;;;;;;;10.27;4.17;;;;;3.00;101391.00;;;;10432397;28;20236;-78
2021/01/14 10:45:39;;;;;;;7.67;3.50;;;;;3.20;101383.00;;;;10397211;28;20225;-77
2021/01/14 10:50:46;;;;;;;8.67;3.70;;;;;3.30;101368.00;;;;10415584;28;20758;-78
2021/01/14 10:55:47;;;;;;;8.67;3.60;;;;;3.40;101358.00;;;;10414919;28;20197;-78
2021/01/14 11:00:49;;;;;;;9.57;4.20;;;;;3.30;101348.00;;;;10433086;28;20725;-78
2021/01/14 11:05:51;;;;;;;10.37;4.33;;;;;3.30;101356.00;;;;10419183;28;21047;-77
2021/01/14 11:11:04;;;;;;;13.40;4.30;;;;;3.30;101352.00;;;;10442750;28;20234;-78
2021/01/14 11:16:06;;;;;;;13.97;4.90;;;;;3.40;101355.00;;;;10423616;28;20193;-77
2021/01/14 11:21:08;;;;;;;7.87;4.90;;;;;3.60;101349.00;;;;10431698;28;20187;-77
2021/01/14 11:26:18;;;;;;;8.10;4.00;;;;;3.90;101325.00;;;;10412544;28;20198;-77
2021/01/14 11:31:24;;;;;;;14.73;5.27;;;;;4.10;101325.00;;;;10412611;28;20199;-77
2021/01/14 11:36:26;;;;;;;9.87;5.17;;;;;4.30;101319.00;;;;10418696;28;20244;-77
2021/01/14 11:41:27;;;;;;;13.00;5.37;;;;;4.50;101317.00;;;;10407562;28;20198;-77
2021/01/14 11:46:29;;;;;;;11.10;3.80;;;;;4.40;101311.00;;;;10417907;28;20276;-77
2021/01/14 11:51:30;;;;;;;10.60;3.87;;;;;4.00;101304.00;;;;10473384;28;20209;-77
2021/01/14 11:56:32;;;;;;;6.73;4.37;;;;;3.70;101288.00;;;;10401590;28;20204;-77
2021/01/14 12:01:33;;;;;;;9.90;3.90;;;;;3.80;101289.00;;;;10421249;28;20269;-77
2021/01/14 12:06:35;;;;;;;8.23;3.57;;;;;3.90;101280.00;;;;10430676;28;20194;-77
2021/01/14 12:11:36;;;;;;;12.40;4.80;;;;;3.90;101274.00;;;;10428567;28;20217;-77
2021/01/14 12:16:37;;;;;;;14.67;4.13;;;;;3.80;101271.00;;;;10415629;28;20214;-78
2021/01/14 12:21:39;;;;;;;11.83;4.70;;;;;3.70;101266.00;;;;10417248;28;20186;-77
2021/01/14 12:26:40;;;;;;;14.23;4.80;;;;;3.60;101255.00;;;;10439370;28;20194;-77
2021/01/14 12:31:42;;;;;;;12.17;4.50;;;;;3.70;101251.00;;;;10438735;28;20222;-77
2021/01/14 12:36:44;;;;;;;11.43;3.97;;;;;3.80;101242.00;;;;10450479;28;20190;-77
2021/01/14 12:41:46;;;;;;;11.90;4.40;;;;;3.80;101245.00;;;;10424517;28;20202;-77
2021/01/14 12:46:49;;;;;;;8.60;4.07;;;;;3.70;101242.00;;;;10404165;28;20242;-77
2021/01/14 12:51:51;;;;;;;9.03;3.90;;;;;3.50;101233.00;;;;10460922;28;20211;-77
2021/01/14 12:56:54;;;;;;;17.40;5.40;;;;;3.40;101228.00;;;;10456682;28;20197;-77
2021/01/14 13:01:55;;;;;;;7.30;3.73;;;;;3.30;101215.00;;;;10435100;28;20886;-77
2021/01/14 13:06:56;;;;;;;11.90;5.63;;;;;3.30;101217.00;;;;10429479;28;20281;-77
2021/01/14 13:11:59;;;;;;;14.00;4.67;;;;;3.30;101208.00;;;;10435105;28;20230;-77
2021/01/14 13:17:02;;;;;;;13.10;5.57;;;;;3.40;101200.00;;;;10438264;28;20191;-77
2021/01/14 13:22:05;;;;;;;9.60;5.23;;;;;3.50;101202.00;;;;10414240;28;20191;-77
2021/01/14 13:27:07;;;;;;;12.10;5.53;;;;;3.50;101191.00;;;;10427401;28;20616;-76
2021/01/14 13:32:08;;;;;;;13.93;4.97;;;;;3.50;101188.00;;;;10417246;28;20223;-77
2021/01/14 13:37:09;;;;;;;14.57;4.30;;;;;3.40;101177.00;;;;10441855;28;20195;-77
2021/01/14 13:42:23;;;;;;;12.80;4.87;;;;;3.40;101175.00;;;;10441224;28;20545;-76
2021/01/14 13:47:29;;;;;;;10.53;5.53;;;;;3.40;101179.00;;;;10439698;28;20202;-76
2021/01/14 13:52:41;;;;;;;17.47;5.27;;;;;3.30;101173.00;;;;10409330;28;20210;-77
2021/01/14 13:57:42;;;;;;;11.53;5.23;;;;;3.20;101164.00;;;;10430310;28;20658;-76
2021/01/14 14:02:46;;;;;;;9.17;4.50;;;;;3.20;101163.00;;;;10416411;28;20203;-77
2021/01/14 14:07:48;;;;;;;9.33;4.73;;;;;3.10;101142.00;;;;10414320;28;20198;-77
2021/01/14 14:12:50;;;;;;;12.67;5.40;;;;;3.10;101142.00;;;;10400086;28;20210;-76
2021/01/14 14:17:53;;;;;;;11.17;5.40;;;;;3.00;101149.00;;;;10387732;28;20198;-76
2021/01/14 14:22:57;;;;;;;9.83;5.00;;;;;3.00;101144.00;;;;10383315;28;20197;-77
2021/01/14 14:27:58;;;;;;;12.60;5.10;;;;;2.90;101154.00;;;;10386665;28;20253;-77
2021/01/14 14:32:59;;;;;;;10.43;4.27;;;;;2.90;101151.00;;;;10403485;28;20242;-76
2021/01/14 14:38:03;;;;;;;11.40;3.83;;;;;2.90;101150.00;;;;10416097;28;20907;-77
2021/01/14 14:43:04;;;;;;;7.77;4.17;;;;;2.90;101148.00;;;;10433303;28;20233;-77
2021/01/14 14:48:07;;;;;;;7.43;3.70;;;;;3.00;101141.00;;;;10437731;28;20194;-77
2021/01/14 14:53:08;;;;;;;8.47;3.87;;;;;3.00;101149.00;;;;10386594;28;20196;-77
2021/01/14 14:58:09;;;;;;;6.43;2.60;;;;;3.00;101145.00;;;;10428026;28;20191;-77
2021/01/14 15:03:11;;;;;;;9.27;2.63;;;;;3.00;101134.00;;;;10425392;28;20195;-77
2021/01/14 15:08:12;;;;;;;6.37;2.03;;;;;2.90;101140.00;;;;10404299;28;20228;-77
2021/01/14 15:13:13;;;;;;;5.13;2.30;;;;;2.90;101140.00;;;;10412075;28;20210;-77
2021/01/14 15:18:15;;;;;;;5.27;2.07;;;;;2.80;101133.00;;;;10418409;28;20201;-78
2021/01/14 15:23:16;;;;;;;5.23;2.40;;;;;2.70;101133.00;;;;10438877;28;20669;-77
2021/01/14 15:28:18;;;;;;;4.63;2.30;;;;;2.70;101130.00;;;;10421953;28;20592;-77
2021/01/14 15:33:19;;;;;;;7.97;4.10;;;;;2.60;101132.00;;;;10380464;28;20211;-77
2021/01/14 15:38:22;;;;;;;10.43;4.63;;;;;2.50;101134.00;;;;10428561;28;20226;-77
2021/01/14 15:43:24;;;;;;;9.33;5.10;;;;;2.50;101132.00;;;;10392257;28;20578;-77
2021/01/14 15:48:26;;;;;;;7.67;4.97;;;;;2.40;101131.00;;;;10383147;28;20268;-79
2021/01/14 15:53:28;;;;;;;15.17;5.90;;;;;2.30;101143.00;;;;10409307;28;20293;-77
2021/01/14 15:58:29;;;;;;;14.73;6.23;;;;;2.20;101138.00;;;;10447826;28;20201;-77
2021/01/14 16:03:31;;;;;;;9.83;5.43;;;;;2.20;101146.00;;;;10395760;28;20222;-79
2021/01/14 16:08:32;;;;;;;12.93;6.43;;;;;2.10;101140.00;;;;10406682;28;20198;-77
2021/01/14 16:13:33;;;;;;;14.30;7.10;;;;;2.10;101143.00;;;;10455669;28;20233;-77
2021/01/14 16:18:35;;;;;;;15.93;6.60;;;;;2.10;101148.00;;;;10399661;28;20195;-76
2021/01/14 16:23:36;;;;;;;16.17;6.90;;;;;2.10;101149.00;;;;10436241;28;20191;-79
2021/01/14 16:28:38;;;;;;;15.13;6.10;;;;;2.10;101151.00;;;;10449971;28;20581;-80
2021/01/14 16:33:39;;;;;;;21.23;6.57;;;;;2.20;101148.00;;;;10437850;28;20210;-78
2021/01/14 16:38:41;;;;;;;11.10;5.90;;;;;2.20;101146.00;;;;10418718;28;20206;-78
2021/01/14 16:43:42;;;;;;;16.93;6.93;;;;;2.20;101141.00;;;;10419271;28;20237;-78
2021/01/14 16:48:44;;;;;;;18.53;6.57;;;;;2.10;101157.00;;;;10452456;28;20248;-78
2021/01/14 16:53:45;;;;;;;15.90;6.00;;;;;2.10;101152.00;;;;10436615;28;20218;-79
2021/01/14 16:58:50;;;;;;;15.37;6.13;;;;;2.10;101153.00;;;;10423590;28;20197;-78
2021/01/14 17:03:53;;;;;;;14.73;6.50;;;;;2.00;101158.00;;;;10444946;28;20534;-78
2021/01/14 17:08:56;;;;;;;19.27;6.97;;;;;2.00;101166.00;;;;10417472;28;20195;-78
2021/01/14 17:13:58;;;;;;;13.67;6.43;;;;;2.00;101168.00;;;;10419840;28;20297;-78
2021/01/14 17:18:59;;;;;;;16.13;6.30;;;;;2.00;101184.00;;;;10412160;28;20190;-78
2021/01/14 17:24:03;;;;;;;17.13;7.17;;;;;2.00;101171.00;;;;10447324;28;20258;-78
2021/01/14 17:29:05;;;;;;;16.33;7.23;;;;;2.00;101183.00;;;;10422938;28;20191;-78
2021/01/14 17:34:06;;;;;;;13.23;6.93;;;;;2.00;101184.00;;;;10422163;28;20692;-78
2021/01/14 17:39:07;;;;;;;18.07;8.27;;;;;1.90;101184.00;;;;10426490;28;20191;-77
2021/01/14 17:44:10;;;;;;;24.10;10.20;;;;;1.90;101183.00;;;;10444844;28;20214;-78
2021/01/14 17:49:11;;;;;;;22.03;9.00;;;;;1.90;101194.00;;;;10411254;28;20649;-78
2021/01/14 17:54:13;;;;;;;16.73;8.63;;;;;1.90;101193.00;;;;10407457;28;20213;-78
2021/01/14 17:59:15;;;;;;;21.13;9.60;;;;;1.90;101192.00;;;;10422822;28;20297;-78
2021/01/14 18:04:17;;;;;;;14.77;9.03;;;;;1.90;101191.00;;;;10409239;28;20248;-78
2021/01/14 18:09:19;;;;;;;15.43;9.67;;;;;1.90;101200.00;;;;10443176;28;20194;-78
2021/01/14 18:14:22;;;;;;;23.60;9.40;;;;;1.90;101190.00;;;;10415059;28;20210;-78
2021/01/14 18:19:23;;;;;;;15.80;8.43;;;;;1.90;101205.00;;;;10415667;28;20209;-79
2021/01/14 18:24:25;;;;;;;16.10;9.03;;;;;1.80;101203.00;;;;10442274;28;20198;-78
2021/01/14 18:29:26;;;;;;;15.40;8.17;;;;;1.80;101207.00;;;;10431942;28;20256;-78
2021/01/14 18:34:27;;;;;;;16.70;7.73;;;;;1.80;101213.00;;;;10404444;28;20333;-78
2021/01/14 18:39:29;;;;;;;18.33;7.97;;;;;1.80;101212.00;;;;10405813;28;20213;-78
2021/01/14 18:44:30;;;;;;;15.83;8.47;;;;;1.80;101224.00;;;;10434622;28;20219;-78
2021/01/14 18:49:32;;;;;;;13.37;7.40;;;;;1.80;101225.00;;;;10389981;28;20198;-78
2021/01/14 18:54:33;;;;;;;17.77;8.60;;;;;1.80;101222.00;;;;10424951;28;20214;-78
2021/01/14 18:59:34;;;;;;;14.37;7.93;;;;;1.80;101228.00;;;;10459609;28;20688;-78
2021/01/14 19:04:36;;;;;;;15.73;8.17;;;;;1.80;101235.00;;;;10406973;28;20195;-77
2021/01/14 19:09:37;;;;;;;16.27;6.73;;;;;1.80;101241.00;;;;10447152;28;20664;-77
2021/01/14 19:14:38;;;;;;;18.17;8.50;;;;;1.80;101239.00;;;;10442325;28;20212;-77
2021/01/14 19:19:40;;;;;;;17.97;7.13;;;;;1.80;101253.00;;;;10419094;28;20667;-78
2021/01/14 19:24:42;;;;;;;18.53;8.73;;;;;1.80;101253.00;;;;10424503;28;20216;-78
2021/01/14 19:29:43;;;;;;;20.43;8.00;;;;;1.80;101253.00;;;;10389664;28;20592;-78
2021/01/14 19:34:45;;;;;;;14.43;6.67;;;;;1.80;101263.00;;;;10436406;28;20210;-78
2021/01/14 19:39:46;;;;;;;14.97;8.47;;;;;1.80;101265.00;;;;10405210;28;20285;-79
2021/01/14 19:44:48;;;;;;;16.20;6.67;;;;;1.80;101270.00;;;;10389464;28;20264;-78
2021/01/14 19:49:49;;;;;;;18.07;7.97;;;;;1.80;101266.00;;;;10429763;28;20301;-78
2021/01/14 19:54:51;;;;;;;11.90;7.37;;;;;1.70;101274.00;;;;10410070;28;20206;-78
2021/01/14 19:59:53;;;;;;;15.40;7.07;;;;;1.70;101286.00;;;;10402502;28;20203;-78
2021/01/14 20:04:55;;;;;;;18.50;7.57;;;;;1.70;101295.00;;;;10419626;28;20195;-78
2021/01/14 20:09:56;;;;;;;14.83;6.33;;;;;1.70;101284.00;;;;10432966;28;20249;-78
2021/01/14 20:14:58;;;;;;;11.57;6.63;;;;;1.70;101301.00;;;;10429289;28;20211;-77
2021/01/14 20:20:00;;;;;;;13.67;6.93;;;;;1.70;101314.00;;;;10424181;28;20195;-78
2021/01/14 20:25:04;;;;;;;11.70;6.40;;;;;1.70;101326.00;;;;10435378;28;20224;-78
2021/01/14 20:30:06;;;;;;;13.90;7.73;;;;;1.60;101324.00;;;;10431047;28;20199;-77
2021/01/14 20:35:08;;;;;;;12.40;6.93;;;;;1.60;101323.00;;;;10443546;28;20210;-77
2021/01/14 20:40:10;;;;;;;15.40;8.00;;;;;1.50;101336.00;;;;10409513;28;20233;-77
2021/01/14 20:45:12;;;;;;;15.33;7.80;;;;;1.40;101346.00;;;;10436222;28;20217;-77
2021/01/14 20:50:13;;;;;;;18.50;8.20;;;;;1.40;101362.00;;;;10447408;28;20546;-78
2021/01/14 20:55:15;;;;;;;13.03;6.93;;;;;1.40;101373.00;;;;10432016;28;20210;-77
2021/01/14 21:00:16;;;;;;;14.37;8.53;;;;;1.40;101365.00;;;;10493626;28;20278;-78
2021/01/14 21:05:18;;;;;;;13.33;7.47;;;;;1.30;101380.00;;;;10452923;28;20233;-77
2021/01/14 21:10:19;;;;;;;14.70;7.67;;;;;1.20;101388.00;;;;10478959;28;20224;-78
2021/01/14 21:15:23;;;;;;;12.83;7.63;;;;;1.10;101393.00;;;;10457841;28;20589;-77
2021/01/14 21:20:25;;;;;;;15.87;8.33;;;;;1.00;101402.00;;;;10441353;28;20251;-78
2021/01/14 21:25:26;;;;;;;15.33;9.13;;;;;1.00;101406.00;;;;10459186;28;20208;-78
2021/01/14 21:30:28;;;;;;;16.87;9.37;;;;;0.90;101412.00;;;;10449641;28;20249;-77
2021/01/14 21:35:30;;;;;;;13.57;8.67;;;;;0.90;101421.00;;;;10455192;28;20259;-78
2021/01/14 21:40:31;;;;;;;17.33;8.00;;;;;0.80;101414.00;;;;10456927;28;20194;-78
2021/01/14 21:45:32;;;;;;;18.57;8.37;;;;;0.80;101421.00;;;;10443883;28;20225;-76
2021/01/14 21:50:33;;;;;;;13.20;8.13;;;;;0.80;101433.00;;;;10468881;28;20243;-78
2021/01/14 21:55:35;;;;;;;16.67;8.37;;;;;0.80;101433.00;;;;10451447;28;20197;-77
2021/01/14 22:00:36;;;;;;;14.90;9.53;;;;;0.80;101425.00;;;;10450905;28;20209;-77
2021/01/14 22:05:37;;;;;;;14.73;8.33;;;;;0.80;101445.00;;;;10479508;28;20219;-77
2021/01/14 22:10:39;;;;;;;17.67;8.53;;;;;0.80;101450.00;;;;10455485;28;20202;-78
2021/01/14 22:15:40;;;;;;;19.60;11.70;;;;;0.80;101458.00;;;;10474617;28;20838;-77
2021/01/14 22:20:41;;;;;;;13.30;9.13;;;;;0.80;101462.00;;;;10469324;28;20709;-78
2021/01/14 22:25:43;;;;;;;11.97;8.13;;;;;0.80;101464.00;;;;10418000;28;20212;-77
2021/01/14 22:30:44;;;;;;;11.23;7.90;;;;;0.70;101476.00;;;;10453608;28;20205;-77
2021/01/14 22:35:46;;;;;;;12.77;8.37;;;;;0.80;101483.00;;;;10440159;28;20182;-77
2021/01/14 22:40:49;;;;;;;15.97;8.57;;;;;0.70;101485.00;;;;10440791;28;20202;-78
2021/01/14 22:45:50;;;;;;;13.93;7.47;;;;;0.70;101492.00;;;;10444104;28;20230;-78
2021/01/14 22:50:51;;;;;;;13.30;7.27;;;;;0.70;101489.00;;;;10446785;28;20213;-78
2021/01/14 22:55:53;;;;;;;13.43;7.17;;;;;0.60;101494.00;;;;10418234;28;20198;-78
2021/01/14 23:00:54;;;;;;;11.17;8.00;;;;;0.50;101505.00;;;;10401125;28;20207;-78
2021/01/14 23:05:56;;;;;;;14.60;8.07;;;;;0.50;101519.00;;;;10427767;28;20217;-78
2021/01/14 23:10:57;;;;;;;16.73;8.90;;;;;0.50;101515.00;;;;10442536;28;20988;-78
2021/01/14 23:15:58;;;;;;;12.37;8.50;;;;;0.40;101519.00;;;;10468537;28;20266;-78
2021/01/14 23:21:02;;;;;;;10.07;7.73;;;;;0.40;101525.00;;;;10464193;28;20197;-77
2021/01/14 23:26:04;;;;;;;14.47;9.17;;;;;0.30;101532.00;;;;10441591;28;20201;-77
2021/01/14 23:31:05;;;;;;;13.60;9.03;;;;;0.30;101541.00;;;;10434155;28;20837;-76
2021/01/14 23:36:07;;;;;;;12.67;8.20;;;;;0.20;101549.00;;;;10456872;28;20200;-76
2021/01/14 23:41:13;;;;;;;13.07;7.73;;;;;0.10;101543.00;;;;10462588;28;20726;-77
2021/01/14 23:46:15;;;;;;;13.50;8.60;;;;;0.10;101551.00;;;;10409582;28;20726;-77
2021/01/14 23:51:19;;;;;;;11.33;7.57;;;;;0.00;101554.00;;;;10398775;28;20309;-77
2021/01/14 23:56:21;;;;;;;14.50;8.73;;;;;0.00;101561.00;;;;10418098;28;20202;-77
